sensor_id;sensor_type;location;lat;lon;timestamp;P1;durP1;ratioP1;P2;durP2;ratioP2
19816;SDS011;68323;49.394;8.434;2023-08-08T00:01:50;2.77;;;2.00;;
19816;SDS011;68323;49.394;8.434;2023-08-08T00:04:15;4.30;;;1.90;;
19816;SDS011;68323;49.394;8.434;2023-08-08T00:06:41;3.30;;;1.97;;
19816;SDS011;68323;49.394;8.434;2023-08-08T00:09:06;3.83;;;1.90;;
19816;SDS011;68323;49.394;8.434;2023-08-08T00:11:32;3.80;;;1.83;;
19816;SDS011;68323;49.394;8.434;2023-08-08T00:13:58;2.33;;;1.70;;
19816;SDS011;68323;49.394;8.434;2023-08-08T00:16:23;2.27;;;1.70;;
19816;SDS011;68323;49.394;8.434;2023-08-08T00:18:49;2.23;;;1.73;;
19816;SDS011;68323;49.394;8.434;2023-08-08T00:21:15;2.70;;;1.90;;
19816;SDS011;68323;49.394;8.434;2023-08-08T00:23:41;4.00;;;1.80;;
19816;SDS011;68323;49.394;8.434;2023-08-08T00:26:07;3.17;;;1.90;;
19816;SDS011;68323;49.394;8.434;2023-08-08T00:28:32;3.70;;;1.90;;
19816;SDS011;68323;49.394;8.434;2023-08-08T00:30:58;6.97;;;1.93;;
19816;SDS011;68323;49.394;8.434;2023-08-08T00:33:23;3.57;;;1.90;;
19816;SDS011;68323;49.394;8.434;2023-08-08T00:35:49;2.60;;;1.50;;
19816;SDS011;68323;49.394;8.434;2023-08-08T00:38:14;3.40;;;1.93;;
19816;SDS011;68323;49.394;8.434;2023-08-08T00:40:41;3.47;;;2.10;;
19816;SDS011;68323;49.394;8.434;2023-08-08T00:43:07;5.23;;;2.20;;
19816;SDS011;68323;49.394;8.434;2023-08-08T00:45:32;4.37;;;1.90;;
19816;SDS011;68323;49.394;8.434;2023-08-08T00:47:58;2.87;;;1.70;;
19816;SDS011;68323;49.394;8.434;2023-08-08T00:50:24;5.40;;;1.90;;
19816;SDS011;68323;49.394;8.434;2023-08-08T00:52:50;4.33;;;2.17;;
19816;SDS011;68323;49.394;8.434;2023-08-08T00:55:15;2.00;;;1.50;;
19816;SDS011;68323;49.394;8.434;2023-08-08T00:57:41;2.37;;;1.70;;
19816;SDS011;68323;49.394;8.434;2023-08-08T01:00:07;4.93;;;2.00;;
19816;SDS011;68323;49.394;8.434;2023-08-08T01:02:34;5.00;;;2.00;;
19816;SDS011;68323;49.394;8.434;2023-08-08T01:05:00;3.03;;;1.87;;
19816;SDS011;68323;49.394;8.434;2023-08-08T01:07:47;3.17;;;2.30;;
19816;SDS011;68323;49.394;8.434;2023-08-08T01:10:17;3.53;;;1.90;;
19816;SDS011;68323;49.394;8.434;2023-08-08T01:12:53;3.93;;;1.80;;
19816;SDS011;68323;49.394;8.434;2023-08-08T01:15:28;3.83;;;2.03;;
19816;SDS011;68323;49.394;8.434;2023-08-08T01:17:57;4.17;;;2.10;;
19816;SDS011;68323;49.394;8.434;2023-08-08T01:20:23;4.73;;;2.17;;
19816;SDS011;68323;49.394;8.434;2023-08-08T01:25:23;4.03;;;2.00;;
19816;SDS011;68323;49.394;8.434;2023-08-08T01:27:49;3.70;;;1.93;;
19816;SDS011;68323;49.394;8.434;2023-08-08T01:30:14;3.60;;;2.17;;
19816;SDS011;68323;49.394;8.434;2023-08-08T01:32:40;5.80;;;2.53;;
19816;SDS011;68323;49.394;8.434;2023-08-08T01:35:06;4.73;;;3.10;;
19816;SDS011;68323;49.394;8.434;2023-08-08T01:37:35;3.77;;;2.20;;
19816;SDS011;68323;49.394;8.434;2023-08-08T01:40:04;4.07;;;2.77;;
19816;SDS011;68323;49.394;8.434;2023-08-08T01:42:31;4.17;;;2.60;;
19816;SDS011;68323;49.394;8.434;2023-08-08T01:44:57;3.30;;;2.13;;
19816;SDS011;68323;49.394;8.434;2023-08-08T01:47:23;3.33;;;2.13;;
19816;SDS011;68323;49.394;8.434;2023-08-08T01:49:49;4.67;;;2.20;;
19816;SDS011;68323;49.394;8.434;2023-08-08T01:52:14;5.47;;;2.23;;
19816;SDS011;68323;49.394;8.434;2023-08-08T01:54:40;3.30;;;2.00;;
19816;SDS011;68323;49.394;8.434;2023-08-08T01:57:07;7.37;;;3.63;;
19816;SDS011;68323;49.394;8.434;2023-08-08T01:59:33;6.67;;;2.83;;
19816;SDS011;68323;49.394;8.434;2023-08-08T02:01:58;6.17;;;3.20;;
19816;SDS011;68323;49.394;8.434;2023-08-08T02:04:24;3.60;;;2.33;;
19816;SDS011;68323;49.394;8.434;2023-08-08T02:06:49;3.90;;;2.10;;
19816;SDS011;68323;49.394;8.434;2023-08-08T02:09:15;5.17;;;2.37;;
19816;SDS011;68323;49.394;8.434;2023-08-08T02:11:40;3.70;;;2.50;;
19816;SDS011;68323;49.394;8.434;2023-08-08T02:14:07;4.00;;;2.40;;
19816;SDS011;68323;49.394;8.434;2023-08-08T02:16:32;3.33;;;2.20;;
19816;SDS011;68323;49.394;8.434;2023-08-08T02:18:59;7.17;;;3.03;;
19816;SDS011;68323;49.394;8.434;2023-08-08T02:21:25;3.83;;;2.30;;
19816;SDS011;68323;49.394;8.434;2023-08-08T02:23:50;3.33;;;2.23;;
19816;SDS011;68323;49.394;8.434;2023-08-08T02:26:16;3.60;;;2.37;;
19816;SDS011;68323;49.394;8.434;2023-08-08T02:28:41;7.20;;;2.80;;
19816;SDS011;68323;49.394;8.434;2023-08-08T02:31:08;4.67;;;2.63;;
19816;SDS011;68323;49.394;8.434;2023-08-08T02:33:33;3.63;;;2.77;;
19816;SDS011;68323;49.394;8.434;2023-08-08T02:35:59;2.70;;;2.30;;
19816;SDS011;68323;49.394;8.434;2023-08-08T02:38:25;3.23;;;2.40;;
19816;SDS011;68323;49.394;8.434;2023-08-08T02:40:50;5.23;;;2.40;;
19816;SDS011;68323;49.394;8.434;2023-08-08T02:43:16;5.37;;;2.37;;
19816;SDS011;68323;49.394;8.434;2023-08-08T02:45:41;3.70;;;2.50;;
19816;SDS011;68323;49.394;8.434;2023-08-08T02:48:07;2.70;;;2.27;;
19816;SDS011;68323;49.394;8.434;2023-08-08T02:50:32;5.27;;;2.57;;
19816;SDS011;68323;49.394;8.434;2023-08-08T02:52:58;4.53;;;2.60;;
19816;SDS011;68323;49.394;8.434;2023-08-08T02:55:24;5.73;;;2.70;;
19816;SDS011;68323;49.394;8.434;2023-08-08T02:57:49;5.70;;;2.40;;
19816;SDS011;68323;49.394;8.434;2023-08-08T03:00:15;5.60;;;2.67;;
19816;SDS011;68323;49.394;8.434;2023-08-08T03:02:40;5.53;;;2.70;;
19816;SDS011;68323;49.394;8.434;2023-08-08T03:05:06;5.57;;;3.20;;
19816;SDS011;68323;49.394;8.434;2023-08-08T03:07:32;4.20;;;3.03;;
19816;SDS011;68323;49.394;8.434;2023-08-08T03:09:57;4.33;;;2.70;;
19816;SDS011;68323;49.394;8.434;2023-08-08T03:12:23;7.43;;;3.17;;
19816;SDS011;68323;49.394;8.434;2023-08-08T03:14:48;4.30;;;2.77;;
19816;SDS011;68323;49.394;8.434;2023-08-08T03:17:14;5.27;;;3.03;;
19816;SDS011;68323;49.394;8.434;2023-08-08T03:19:39;5.03;;;3.00;;
19816;SDS011;68323;49.394;8.434;2023-08-08T03:22:05;5.97;;;2.90;;
19816;SDS011;68323;49.394;8.434;2023-08-08T03:24:30;6.47;;;3.00;;
19816;SDS011;68323;49.394;8.434;2023-08-08T03:26:56;4.43;;;2.93;;
19816;SDS011;68323;49.394;8.434;2023-08-08T03:29:21;4.43;;;2.87;;
19816;SDS011;68323;49.394;8.434;2023-08-08T03:31:47;6.37;;;2.90;;
19816;SDS011;68323;49.394;8.434;2023-08-08T03:34:13;6.07;;;2.87;;
19816;SDS011;68323;49.394;8.434;2023-08-08T03:36:38;4.73;;;3.27;;
19816;SDS011;68323;49.394;8.434;2023-08-08T03:39:04;6.13;;;3.50;;
19816;SDS011;68323;49.394;8.434;2023-08-08T03:41:29;6.30;;;3.47;;
19816;SDS011;68323;49.394;8.434;2023-08-08T03:43:55;6.50;;;3.50;;
19816;SDS011;68323;49.394;8.434;2023-08-08T03:46:21;5.90;;;3.60;;
19816;SDS011;68323;49.394;8.434;2023-08-08T03:48:47;6.00;;;3.50;;
19816;SDS011;68323;49.394;8.434;2023-08-08T03:51:12;5.23;;;3.73;;
19816;SDS011;68323;49.394;8.434;2023-08-08T03:53:38;4.87;;;3.80;;
19816;SDS011;68323;49.394;8.434;2023-08-08T03:56:04;4.93;;;3.70;;
19816;SDS011;68323;49.394;8.434;2023-08-08T03:58:29;7.43;;;3.70;;
19816;SDS011;68323;49.394;8.434;2023-08-08T04:00:55;6.13;;;3.53;;
19816;SDS011;68323;49.394;8.434;2023-08-08T04:03:21;5.80;;;3.50;;
19816;SDS011;68323;49.394;8.434;2023-08-08T04:05:47;8.43;;;4.10;;
19816;SDS011;68323;49.394;8.434;2023-08-08T04:08:13;7.53;;;4.00;;
19816;SDS011;68323;49.394;8.434;2023-08-08T04:10:39;5.00;;;3.70;;
19816;SDS011;68323;49.394;8.434;2023-08-08T04:13:05;8.03;;;3.90;;
19816;SDS011;68323;49.394;8.434;2023-08-08T04:15:31;6.53;;;3.83;;
19816;SDS011;68323;49.394;8.434;2023-08-08T04:17:56;5.93;;;3.63;;
19816;SDS011;68323;49.394;8.434;2023-08-08T04:20:22;8.60;;;4.17;;
19816;SDS011;68323;49.394;8.434;2023-08-08T04:22:47;5.27;;;4.03;;
19816;SDS011;68323;49.394;8.434;2023-08-08T04:25:13;6.13;;;4.20;;
19816;SDS011;68323;49.394;8.434;2023-08-08T04:27:40;14.70;;;4.30;;
19816;SDS011;68323;49.394;8.434;2023-08-08T04:30:06;6.53;;;4.00;;
19816;SDS011;68323;49.394;8.434;2023-08-08T04:32:32;10.10;;;4.30;;
19816;SDS011;68323;49.394;8.434;2023-08-08T04:34:57;6.27;;;4.20;;
19816;SDS011;68323;49.394;8.434;2023-08-08T04:37:23;8.23;;;4.40;;
19816;SDS011;68323;49.394;8.434;2023-08-08T04:39:49;8.93;;;4.17;;
19816;SDS011;68323;49.394;8.434;2023-08-08T04:42:14;5.83;;;3.90;;
19816;SDS011;68323;49.394;8.434;2023-08-08T04:44:40;41.50;;;24.30;;
19816;SDS011;68323;49.394;8.434;2023-08-08T04:47:05;40.20;;;22.33;;
19816;SDS011;68323;49.394;8.434;2023-08-08T04:49:31;24.63;;;12.87;;
19816;SDS011;68323;49.394;8.434;2023-08-08T04:51:56;21.27;;;9.87;;
19816;SDS011;68323;49.394;8.434;2023-08-08T04:54:22;30.17;;;22.73;;
19816;SDS011;68323;49.394;8.434;2023-08-08T04:56:47;14.30;;;8.70;;
19816;SDS011;68323;49.394;8.434;2023-08-08T04:59:13;16.07;;;9.07;;
19816;SDS011;68323;49.394;8.434;2023-08-08T05:01:38;6.43;;;4.30;;
19816;SDS011;68323;49.394;8.434;2023-08-08T05:04:04;6.50;;;4.30;;
19816;SDS011;68323;49.394;8.434;2023-08-08T05:06:30;5.43;;;4.00;;
19816;SDS011;68323;49.394;8.434;2023-08-08T05:08:55;6.17;;;3.77;;
19816;SDS011;68323;49.394;8.434;2023-08-08T05:11:21;5.43;;;3.70;;
19816;SDS011;68323;49.394;8.434;2023-08-08T05:13:47;9.00;;;4.00;;
19816;SDS011;68323;49.394;8.434;2023-08-08T05:16:13;7.10;;;3.27;;
19816;SDS011;68323;49.394;8.434;2023-08-08T05:18:38;5.90;;;3.70;;
19816;SDS011;68323;49.394;8.434;2023-08-08T05:21:07;4.90;;;3.33;;
19816;SDS011;68323;49.394;8.434;2023-08-08T05:23:36;7.13;;;3.20;;
19816;SDS011;68323;49.394;8.434;2023-08-08T05:26:02;4.63;;;2.77;;
19816;SDS011;68323;49.394;8.434;2023-08-08T05:28:28;5.20;;;3.17;;
19816;SDS011;68323;49.394;8.434;2023-08-08T05:30:54;10.77;;;3.20;;
19816;SDS011;68323;49.394;8.434;2023-08-08T05:33:19;5.30;;;2.77;;
19816;SDS011;68323;49.394;8.434;2023-08-08T05:35:45;6.37;;;2.87;;
19816;SDS011;68323;49.394;8.434;2023-08-08T05:38:13;2.60;;;2.20;;
19816;SDS011;68323;49.394;8.434;2023-08-08T05:40:39;7.67;;;2.37;;
19816;SDS011;68323;49.394;8.434;2023-08-08T05:43:04;4.07;;;1.77;;
19816;SDS011;68323;49.394;8.434;2023-08-08T05:45:30;10.67;;;2.00;;
19816;SDS011;68323;49.394;8.434;2023-08-08T05:47:56;4.80;;;2.00;;
19816;SDS011;68323;49.394;8.434;2023-08-08T05:50:22;5.07;;;1.93;;
19816;SDS011;68323;49.394;8.434;2023-08-08T05:52:48;3.73;;;1.63;;
19816;SDS011;68323;49.394;8.434;2023-08-08T05:55:13;4.53;;;1.80;;
19816;SDS011;68323;49.394;8.434;2023-08-08T05:57:39;2.00;;;1.50;;
19816;SDS011;68323;49.394;8.434;2023-08-08T06:00:05;2.23;;;1.50;;
19816;SDS011;68323;49.394;8.434;2023-08-08T06:02:33;3.83;;;1.83;;
19816;SDS011;68323;49.394;8.434;2023-08-08T06:04:59;4.28;;;1.83;;
19816;SDS011;68323;49.394;8.434;2023-08-08T06:07:25;5.13;;;1.40;;
19816;SDS011;68323;49.394;8.434;2023-08-08T06:09:51;3.25;;;1.30;;
19816;SDS011;68323;49.394;8.434;2023-08-08T06:12:17;2.53;;;1.55;;
19816;SDS011;68323;49.394;8.434;2023-08-08T06:14:42;4.90;;;1.50;;
19816;SDS011;68323;49.394;8.434;2023-08-08T06:17:08;2.92;;;1.50;;
19816;SDS011;68323;49.394;8.434;2023-08-08T06:19:34;3.45;;;1.45;;
19816;SDS011;68323;49.394;8.434;2023-08-08T06:22:00;4.00;;;1.48;;
19816;SDS011;68323;49.394;8.434;2023-08-08T06:24:25;2.05;;;1.20;;
19816;SDS011;68323;49.394;8.434;2023-08-08T06:26:51;4.28;;;1.35;;
19816;SDS011;68323;49.394;8.434;2023-08-08T06:29:16;11.95;;;1.35;;
19816;SDS011;68323;49.394;8.434;2023-08-08T06:31:45;4.57;;;1.40;;
19816;SDS011;68323;49.394;8.434;2023-08-08T06:34:11;4.78;;;1.50;;
19816;SDS011;68323;49.394;8.434;2023-08-08T06:36:36;4.78;;;1.35;;
19816;SDS011;68323;49.394;8.434;2023-08-08T06:39:02;3.85;;;1.35;;
19816;SDS011;68323;49.394;8.434;2023-08-08T06:41:28;2.15;;;1.27;;
19816;SDS011;68323;49.394;8.434;2023-08-08T06:43:53;4.72;;;1.52;;
19816;SDS011;68323;49.394;8.434;2023-08-08T06:46:19;5.45;;;1.65;;
19816;SDS011;68323;49.394;8.434;2023-08-08T06:48:45;2.78;;;1.50;;
19816;SDS011;68323;49.394;8.434;2023-08-08T06:51:11;3.35;;;1.50;;
19816;SDS011;68323;49.394;8.434;2023-08-08T06:53:37;6.10;;;1.27;;
19816;SDS011;68323;49.394;8.434;2023-08-08T06:56:03;3.80;;;1.08;;
19816;SDS011;68323;49.394;8.434;2023-08-08T06:58:29;1.90;;;1.25;;
19816;SDS011;68323;49.394;8.434;2023-08-08T07:00:54;9.68;;;2.00;;
19816;SDS011;68323;49.394;8.434;2023-08-08T07:03:20;2.45;;;1.23;;
19816;SDS011;68323;49.394;8.434;2023-08-08T07:05:46;2.17;;;1.10;;
19816;SDS011;68323;49.394;8.434;2023-08-08T07:08:16;2.78;;;1.20;;
19816;SDS011;68323;49.394;8.434;2023-08-08T07:10:42;4.00;;;1.50;;
19816;SDS011;68323;49.394;8.434;2023-08-08T07:13:08;2.55;;;1.33;;
19816;SDS011;68323;49.394;8.434;2023-08-08T07:15:33;1.95;;;1.20;;
19816;SDS011;68323;49.394;8.434;2023-08-08T07:17:59;3.05;;;1.30;;
19816;SDS011;68323;49.394;8.434;2023-08-08T07:20:25;2.72;;;1.35;;
19816;SDS011;68323;49.394;8.434;2023-08-08T07:22:50;2.83;;;1.50;;
19816;SDS011;68323;49.394;8.434;2023-08-08T07:25:16;3.97;;;1.50;;
19816;SDS011;68323;49.394;8.434;2023-08-08T07:27:42;4.82;;;1.45;;
19816;SDS011;68323;49.394;8.434;2023-08-08T07:30:07;3.58;;;1.70;;
19816;SDS011;68323;49.394;8.434;2023-08-08T07:32:33;3.80;;;1.73;;
19816;SDS011;68323;49.394;8.434;2023-08-08T07:35:02;4.75;;;1.60;;
19816;SDS011;68323;49.394;8.434;2023-08-08T07:37:30;3.88;;;1.48;;
19816;SDS011;68323;49.394;8.434;2023-08-08T07:39:57;2.80;;;1.33;;
19816;SDS011;68323;49.394;8.434;2023-08-08T07:42:22;5.40;;;1.40;;
19816;SDS011;68323;49.394;8.434;2023-08-08T07:44:48;2.97;;;1.55;;
19816;SDS011;68323;49.394;8.434;2023-08-08T07:47:13;3.78;;;1.52;;
19816;SDS011;68323;49.394;8.434;2023-08-08T07:49:39;2.13;;;1.45;;
19816;SDS011;68323;49.394;8.434;2023-08-08T07:52:05;4.78;;;1.55;;
19816;SDS011;68323;49.394;8.434;2023-08-08T07:54:34;3.30;;;1.40;;
19816;SDS011;68323;49.394;8.434;2023-08-08T07:56:59;8.52;;;1.63;;
19816;SDS011;68323;49.394;8.434;2023-08-08T07:59:25;3.50;;;1.25;;
19816;SDS011;68323;49.394;8.434;2023-08-08T08:01:51;2.92;;;1.15;;
19816;SDS011;68323;49.394;8.434;2023-08-08T08:04:17;1.63;;;1.20;;
19816;SDS011;68323;49.394;8.434;2023-08-08T08:06:42;2.47;;;1.25;;
19816;SDS011;68323;49.394;8.434;2023-08-08T08:09:08;4.03;;;1.40;;
19816;SDS011;68323;49.394;8.434;2023-08-08T08:11:34;2.63;;;1.23;;
19816;SDS011;68323;49.394;8.434;2023-08-08T08:14:08;2.03;;;1.20;;
19816;SDS011;68323;49.394;8.434;2023-08-08T08:16:34;2.20;;;1.25;;
19816;SDS011;68323;49.394;8.434;2023-08-08T08:19:00;3.08;;;1.20;;
19816;SDS011;68323;49.394;8.434;2023-08-08T08:21:26;2.50;;;1.13;;
19816;SDS011;68323;49.394;8.434;2023-08-08T08:27:14;1.95;;;1.05;;
19816;SDS011;68323;49.394;8.434;2023-08-08T08:29:46;3.10;;;1.30;;
19816;SDS011;68323;49.394;8.434;2023-08-08T08:32:12;1.77;;;1.08;;
19816;SDS011;68323;49.394;8.434;2023-08-08T08:34:37;2.17;;;1.40;;
19816;SDS011;68323;49.394;8.434;2023-08-08T08:40:44;2.55;;;1.23;;
19816;SDS011;68323;49.394;8.434;2023-08-08T08:46:35;3.40;;;1.15;;
19816;SDS011;68323;49.394;8.434;2023-08-08T08:49:02;1.58;;;1.08;;
19816;SDS011;68323;49.394;8.434;2023-08-08T08:51:34;2.33;;;1.20;;
19816;SDS011;68323;49.394;8.434;2023-08-08T08:54:01;3.72;;;1.20;;
19816;SDS011;68323;49.394;8.434;2023-08-08T08:56:27;2.15;;;1.38;;
19816;SDS011;68323;49.394;8.434;2023-08-08T09:05:06;1.67;;;1.00;;
19816;SDS011;68323;49.394;8.434;2023-08-08T09:10:56;2.42;;;1.40;;
19816;SDS011;68323;49.394;8.434;2023-08-08T09:13:22;1.60;;;1.05;;
19816;SDS011;68323;49.394;8.434;2023-08-08T09:15:51;6.07;;;1.05;;
19816;SDS011;68323;49.394;8.434;2023-08-08T09:18:17;2.13;;;1.13;;
19816;SDS011;68323;49.394;8.434;2023-08-08T09:20:52;2.25;;;1.30;;
19816;SDS011;68323;49.394;8.434;2023-08-08T09:36:19;3.25;;;1.40;;
19816;SDS011;68323;49.394;8.434;2023-08-08T09:38:45;2.75;;;1.30;;
19816;SDS011;68323;49.394;8.434;2023-08-08T09:41:11;1.92;;;1.35;;
19816;SDS011;68323;49.394;8.434;2023-08-08T09:43:48;3.38;;;1.40;;
19816;SDS011;68323;49.394;8.434;2023-08-08T09:49:42;1.52;;;1.23;;
19816;SDS011;68323;49.394;8.434;2023-08-08T09:52:09;4.95;;;1.75;;
19816;SDS011;68323;49.394;8.434;2023-08-08T09:54:36;3.50;;;1.38;;
19816;SDS011;68323;49.394;8.434;2023-08-08T09:57:03;4.00;;;1.50;;
19816;SDS011;68323;49.394;8.434;2023-08-08T09:59:31;2.00;;;1.20;;
19816;SDS011;68323;49.394;8.434;2023-08-08T10:01:57;2.13;;;1.20;;
19816;SDS011;68323;49.394;8.434;2023-08-08T10:04:26;2.50;;;1.30;;
19816;SDS011;68323;49.394;8.434;2023-08-08T10:06:55;1.75;;;1.30;;
19816;SDS011;68323;49.394;8.434;2023-08-08T10:09:20;2.35;;;1.20;;
19816;SDS011;68323;49.394;8.434;2023-08-08T10:11:46;3.80;;;1.38;;
19816;SDS011;68323;49.394;8.434;2023-08-08T10:14:12;2.13;;;1.25;;
19816;SDS011;68323;49.394;8.434;2023-08-08T10:16:44;1.92;;;1.20;;
19816;SDS011;68323;49.394;8.434;2023-08-08T10:19:09;2.75;;;1.30;;
19816;SDS011;68323;49.394;8.434;2023-08-08T10:21:36;3.75;;;1.50;;
19816;SDS011;68323;49.394;8.434;2023-08-08T10:24:06;2.03;;;1.20;;
19816;SDS011;68323;49.394;8.434;2023-08-08T10:26:33;2.35;;;1.40;;
19816;SDS011;68323;49.394;8.434;2023-08-08T10:28:59;1.70;;;1.10;;
19816;SDS011;68323;49.394;8.434;2023-08-08T10:31:26;2.95;;;1.40;;
19816;SDS011;68323;49.394;8.434;2023-08-08T10:34:02;1.92;;;1.20;;
19816;SDS011;68323;49.394;8.434;2023-08-08T10:36:49;2.05;;;1.20;;
19816;SDS011;68323;49.394;8.434;2023-08-08T10:39:16;2.47;;;1.30;;
19816;SDS011;68323;49.394;8.434;2023-08-08T10:41:46;2.22;;;1.10;;
19816;SDS011;68323;49.394;8.434;2023-08-08T10:44:22;3.28;;;1.50;;
19816;SDS011;68323;49.394;8.434;2023-08-08T10:46:49;1.77;;;1.20;;
19816;SDS011;68323;49.394;8.434;2023-08-08T10:49:16;5.45;;;1.20;;
19816;SDS011;68323;49.394;8.434;2023-08-08T10:51:43;1.95;;;1.42;;
19816;SDS011;68323;49.394;8.434;2023-08-08T10:54:16;2.30;;;1.17;;
19816;SDS011;68323;49.394;8.434;2023-08-08T10:56:51;2.10;;;1.17;;
19816;SDS011;68323;49.394;8.434;2023-08-08T10:59:21;2.40;;;1.13;;
19816;SDS011;68323;49.394;8.434;2023-08-08T11:01:49;1.95;;;1.30;;
19816;SDS011;68323;49.394;8.434;2023-08-08T11:04:20;4.20;;;1.33;;
19816;SDS011;68323;49.394;8.434;2023-08-08T11:06:48;1.92;;;1.17;;
19816;SDS011;68323;49.394;8.434;2023-08-08T11:09:15;3.78;;;1.33;;
19816;SDS011;68323;49.394;8.434;2023-08-08T11:11:42;4.05;;;1.20;;
19816;SDS011;68323;49.394;8.434;2023-08-08T11:14:12;4.43;;;1.20;;
19816;SDS011;68323;49.394;8.434;2023-08-08T11:16:43;1.92;;;1.17;;
19816;SDS011;68323;49.394;8.434;2023-08-08T11:19:12;2.40;;;1.25;;
19816;SDS011;68323;49.394;8.434;2023-08-08T11:21:40;2.88;;;1.20;;
19816;SDS011;68323;49.394;8.434;2023-08-08T11:24:07;4.05;;;1.42;;
19816;SDS011;68323;49.394;8.434;2023-08-08T11:26:33;2.20;;;1.27;;
19816;SDS011;68323;49.394;8.434;2023-08-08T11:29:00;3.03;;;1.23;;
19816;SDS011;68323;49.394;8.434;2023-08-08T11:31:28;3.55;;;1.25;;
19816;SDS011;68323;49.394;8.434;2023-08-08T11:33:54;4.50;;;1.30;;
19816;SDS011;68323;49.394;8.434;2023-08-08T11:36:21;3.08;;;1.25;;
19816;SDS011;68323;49.394;8.434;2023-08-08T11:38:47;3.05;;;1.15;;
19816;SDS011;68323;49.394;8.434;2023-08-08T11:41:15;5.22;;;1.48;;
19816;SDS011;68323;49.394;8.434;2023-08-08T11:43:41;4.13;;;1.10;;
19816;SDS011;68323;49.394;8.434;2023-08-08T11:46:08;8.75;;;1.65;;
19816;SDS011;68323;49.394;8.434;2023-08-08T11:48:35;3.88;;;0.98;;
19816;SDS011;68323;49.394;8.434;2023-08-08T11:51:06;2.35;;;1.40;;
19816;SDS011;68323;49.394;8.434;2023-08-08T11:53:32;3.38;;;1.08;;
19816;SDS011;68323;49.394;8.434;2023-08-08T11:56:01;2.45;;;1.10;;
19816;SDS011;68323;49.394;8.434;2023-08-08T11:58:28;2.83;;;1.08;;
19816;SDS011;68323;49.394;8.434;2023-08-08T12:00:56;4.22;;;1.40;;
19816;SDS011;68323;49.394;8.434;2023-08-08T12:03:22;6.57;;;1.30;;
19816;SDS011;68323;49.394;8.434;2023-08-08T12:05:49;1.45;;;0.95;;
19816;SDS011;68323;49.394;8.434;2023-08-08T12:08:19;2.25;;;1.00;;
19816;SDS011;68323;49.394;8.434;2023-08-08T12:10:49;4.07;;;1.10;;
19816;SDS011;68323;49.394;8.434;2023-08-08T12:13:19;2.80;;;1.00;;
19816;SDS011;68323;49.394;8.434;2023-08-08T12:15:46;3.30;;;1.13;;
19816;SDS011;68323;49.394;8.434;2023-08-08T12:18:15;4.72;;;1.20;;
19816;SDS011;68323;49.394;8.434;2023-08-08T12:20:42;2.88;;;1.30;;
19816;SDS011;68323;49.394;8.434;2023-08-08T12:23:08;1.60;;;0.95;;
19816;SDS011;68323;49.394;8.434;2023-08-08T12:25:36;1.85;;;0.90;;
19816;SDS011;68323;49.394;8.434;2023-08-08T12:28:02;5.53;;;1.10;;
19816;SDS011;68323;49.394;8.434;2023-08-08T12:30:28;1.67;;;1.00;;
19816;SDS011;68323;49.394;8.434;2023-08-08T12:32:53;3.17;;;1.20;;
19816;SDS011;68323;49.394;8.434;2023-08-08T12:35:19;3.25;;;1.30;;
19816;SDS011;68323;49.394;8.434;2023-08-08T12:37:45;1.67;;;1.00;;
19816;SDS011;68323;49.394;8.434;2023-08-08T12:40:19;2.28;;;0.90;;
19816;SDS011;68323;49.394;8.434;2023-08-08T12:42:45;1.95;;;1.00;;
19816;SDS011;68323;49.394;8.434;2023-08-08T12:45:10;2.60;;;1.10;;
19816;SDS011;68323;49.394;8.434;2023-08-08T12:47:36;1.42;;;0.90;;
19816;SDS011;68323;49.394;8.434;2023-08-08T12:50:05;2.17;;;1.00;;
19816;SDS011;68323;49.394;8.434;2023-08-08T12:52:32;2.05;;;1.20;;
19816;SDS011;68323;49.394;8.434;2023-08-08T12:54:58;2.45;;;1.17;;
19816;SDS011;68323;49.394;8.434;2023-08-08T12:57:24;4.10;;;1.17;;
19816;SDS011;68323;49.394;8.434;2023-08-08T12:59:50;5.65;;;0.98;;
19816;SDS011;68323;49.394;8.434;2023-08-08T13:02:16;6.50;;;1.75;;
19816;SDS011;68323;49.394;8.434;2023-08-08T13:04:44;3.17;;;1.20;;
19816;SDS011;68323;49.394;8.434;2023-08-08T13:07:12;2.10;;;1.05;;
19816;SDS011;68323;49.394;8.434;2023-08-08T13:09:37;3.28;;;1.05;;
19816;SDS011;68323;49.394;8.434;2023-08-08T13:12:04;1.80;;;1.13;;
19816;SDS011;68323;49.394;8.434;2023-08-08T13:14:30;1.92;;;1.10;;
19816;SDS011;68323;49.394;8.434;2023-08-08T13:16:55;1.50;;;0.90;;
19816;SDS011;68323;49.394;8.434;2023-08-08T13:19:21;2.67;;;1.15;;
19816;SDS011;68323;49.394;8.434;2023-08-08T13:21:50;3.58;;;1.00;;
19816;SDS011;68323;49.394;8.434;2023-08-08T13:24:19;4.40;;;1.13;;
19816;SDS011;68323;49.394;8.434;2023-08-08T13:26:48;4.22;;;1.08;;
19816;SDS011;68323;49.394;8.434;2023-08-08T13:29:14;2.08;;;1.23;;
19816;SDS011;68323;49.394;8.434;2023-08-08T13:31:40;3.63;;;1.20;;
19816;SDS011;68323;49.394;8.434;2023-08-08T13:34:05;3.33;;;1.13;;
19816;SDS011;68323;49.394;8.434;2023-08-08T13:36:31;3.95;;;1.20;;
19816;SDS011;68323;49.394;8.434;2023-08-08T13:38:57;2.63;;;1.15;;
19816;SDS011;68323;49.394;8.434;2023-08-08T13:41:28;1.75;;;1.00;;
19816;SDS011;68323;49.394;8.434;2023-08-08T13:44:00;1.98;;;1.13;;
19816;SDS011;68323;49.394;8.434;2023-08-08T13:46:28;3.50;;;1.20;;
19816;SDS011;68323;49.394;8.434;2023-08-08T13:48:56;5.07;;;1.20;;
19816;SDS011;68323;49.394;8.434;2023-08-08T13:51:22;2.63;;;1.15;;
19816;SDS011;68323;49.394;8.434;2023-08-08T13:53:50;2.65;;;1.40;;
19816;SDS011;68323;49.394;8.434;2023-08-08T13:56:19;3.70;;;1.05;;
19816;SDS011;68323;49.394;8.434;2023-08-08T13:58:45;1.75;;;1.00;;
19816;SDS011;68323;49.394;8.434;2023-08-08T14:01:14;2.45;;;1.00;;
19816;SDS011;68323;49.394;8.434;2023-08-08T14:03:40;1.80;;;1.20;;
19816;SDS011;68323;49.394;8.434;2023-08-08T14:06:10;2.72;;;1.15;;
19816;SDS011;68323;49.394;8.434;2023-08-08T14:08:36;2.92;;;1.13;;
19816;SDS011;68323;49.394;8.434;2023-08-08T14:11:02;3.08;;;1.00;;
19816;SDS011;68323;49.394;8.434;2023-08-08T14:13:27;1.45;;;1.10;;
19816;SDS011;68323;49.394;8.434;2023-08-08T14:15:53;2.90;;;1.10;;
19816;SDS011;68323;49.394;8.434;2023-08-08T14:18:19;4.55;;;1.20;;
19816;SDS011;68323;49.394;8.434;2023-08-08T14:24:27;2.33;;;0.90;;
19816;SDS011;68323;49.394;8.434;2023-08-08T14:30:16;2.53;;;1.20;;
19816;SDS011;68323;49.394;8.434;2023-08-08T14:32:42;5.93;;;0.93;;
19816;SDS011;68323;49.394;8.434;2023-08-08T14:35:08;2.05;;;1.00;;
19816;SDS011;68323;49.394;8.434;2023-08-08T14:37:35;1.40;;;0.90;;
19816;SDS011;68323;49.394;8.434;2023-08-08T14:40:01;2.47;;;1.00;;
19816;SDS011;68323;49.394;8.434;2023-08-08T14:42:27;2.40;;;1.10;;
19816;SDS011;68323;49.394;8.434;2023-08-08T14:44:53;3.50;;;1.20;;
19816;SDS011;68323;49.394;8.434;2023-08-08T14:47:19;3.42;;;1.13;;
19816;SDS011;68323;49.394;8.434;2023-08-08T14:49:44;3.65;;;1.20;;
19816;SDS011;68323;49.394;8.434;2023-08-08T14:52:10;4.40;;;1.35;;
19816;SDS011;68323;49.394;8.434;2023-08-08T14:54:36;4.10;;;1.17;;
19816;SDS011;68323;49.394;8.434;2023-08-08T14:57:04;1.70;;;1.00;;
19816;SDS011;68323;49.394;8.434;2023-08-08T14:59:30;1.67;;;1.02;;
19816;SDS011;68323;49.394;8.434;2023-08-08T15:01:56;3.83;;;1.10;;
19816;SDS011;68323;49.394;8.434;2023-08-08T15:04:21;3.15;;;1.00;;
19816;SDS011;68323;49.394;8.434;2023-08-08T15:06:47;5.50;;;1.10;;
19816;SDS011;68323;49.394;8.434;2023-08-08T15:09:12;1.90;;;1.10;;
19816;SDS011;68323;49.394;8.434;2023-08-08T15:11:38;5.60;;;1.38;;
19816;SDS011;68323;49.394;8.434;2023-08-08T15:14:04;2.90;;;1.20;;
19816;SDS011;68323;49.394;8.434;2023-08-08T15:16:29;2.08;;;1.00;;
19816;SDS011;68323;49.394;8.434;2023-08-08T15:18:55;3.60;;;1.35;;
19816;SDS011;68323;49.394;8.434;2023-08-08T15:21:21;3.13;;;1.10;;
19816;SDS011;68323;49.394;8.434;2023-08-08T15:23:47;4.25;;;1.10;;
19816;SDS011;68323;49.394;8.434;2023-08-08T15:26:12;3.35;;;1.17;;
19816;SDS011;68323;49.394;8.434;2023-08-08T15:28:39;9.65;;;1.20;;
19816;SDS011;68323;49.394;8.434;2023-08-08T15:31:04;6.53;;;1.40;;